Time;durP1;ratioP1;P1;durP2;ratioP2;P2;SDS_P1;SDS_P2;PMS_P1;PMS_P2;Temp;Humidity;BMP_temperature;BMP_pressure;BME280_temperature;BME280_humidity;BME280_pressure;Samples;Min_cycle;Max_cycle;Signal;HPM_P1;HPM_P2
2023/08/17 17:54:29;;;;;;;15.15;7.13;;;28.70;91.90;;;;;;5409940;23;20054;-75
2023/08/17 17:57:06;;;;;;;8.80;6.05;;;28.40;92.50;;;;;;4966757;28;20031;-76
2023/08/17 17:59:32;;;;;;;9.45;5.95;;;28.20;92.80;;;;;;4984146;28;20093;-72
2023/08/17 18:02:23;;;;;;;12.68;8.15;;;28.00;93.10;;;;;;4984800;28;20323;-76
2023/08/17 18:05:30;;;;;;;10.70;7.43;;;27.80;93.50;;;;;;4966194;28;20045;-75
2023/08/17 18:12:14;;;;;;;10.88;7.10;;;27.40;94.30;;;;;;4906144;29;20378;-74
2023/08/17 18:14:46;;;;;;;9.52;6.88;;;27.10;94.70;;;;;;4923516;29;20067;-76
2023/08/17 18:17:17;;;;;;;10.15;7.60;;;27.00;95.00;;;;;;4924237;29;20040;-76
2023/08/17 18:19:51;;;;;;;9.88;7.22;;;26.90;95.20;;;;;;4924833;29;20032;-76
2023/08/17 18:22:26;;;;;;;9.80;7.05;;;26.80;95.40;;;;;;4924212;29;20137;-79
2023/08/17 18:24:55;;;;;;;10.65;6.97;;;26.70;95.60;;;;;;4924797;29;20036;-77
2023/08/17 18:27:39;;;;;;;8.65;6.80;;;26.50;96.00;;;;;;4924142;29;20039;-77
2023/08/17 18:30:08;;;;;;;9.07;6.85;;;26.40;96.30;;;;;;4924488;29;20139;-79
2023/08/17 18:32:38;;;;;;;9.93;6.85;;;26.30;96.40;;;;;;4924074;29;20040;-77
2023/08/17 18:39:28;;;;;;;12.95;7.90;;;26.10;96.80;;;;;;4905438;29;20043;-76
2023/08/17 18:42:00;;;;;;;10.90;7.90;;;25.90;97.10;;;;;;4937502;29;20051;-81
2023/08/17 18:44:51;;;;;;;8.45;6.70;;;25.90;97.40;;;;;;4963768;29;20438;-76
2023/08/17 18:47:17;;;;;;;8.90;6.72;;;25.70;97.50;;;;;;4963928;29;20240;-73
2023/08/17 18:49:43;;;;;;;12.32;7.40;;;25.70;97.80;;;;;;4964426;29;20038;-77
2023/08/17 18:52:08;;;;;;;8.57;6.30;;;25.60;97.90;;;;;;4962973;29;20030;-74
2023/08/17 18:54:34;;;;;;;8.90;7.22;;;25.60;98.00;;;;;;4964207;28;20210;-74
2023/08/17 18:57:00;;;;;;;7.97;6.43;;;25.50;98.10;;;;;;4963857;29;20050;-74
2023/08/17 18:59:26;;;;;;;10.07;7.05;;;25.50;98.30;;;;;;4947461;29;20023;-75
2023/08/17 19:01:51;;;;;;;9.35;7.38;;;25.40;98.30;;;;;;4975260;28;20228;-74
2023/08/17 19:04:17;;;;;;;10.02;7.45;;;25.40;98.70;;;;;;4965994;28;20656;-72
2023/08/17 19:06:43;;;;;;;11.65;7.97;;;25.30;98.90;;;;;;4983771;28;20035;-76
2023/08/17 19:09:08;;;;;;;10.18;7.93;;;25.10;99.20;;;;;;4983354;28;20103;-75
2023/08/17 19:11:34;;;;;;;11.27;7.88;;;25.10;99.50;;;;;;4983768;28;20034;-76
2023/08/17 19:14:02;;;;;;;12.65;8.48;;;25.00;99.70;;;;;;4983067;28;20035;-77
2023/08/17 19:16:29;;;;;;;10.90;7.40;;;24.90;99.80;;;;;;4966684;28;20106;-75
2023/08/17 19:18:55;;;;;;;10.15;8.10;;;24.90;99.90;;;;;;4969748;28;20027;-78
2023/08/17 19:21:21;;;;;;;9.98;8.13;;;24.80;99.90;;;;;;4986773;28;20030;-79
2023/08/17 19:23:47;;;;;;;11.48;8.40;;;24.80;99.90;;;;;;4987645;28;20217;-74
2023/08/17 19:26:13;;;;;;;15.20;10.13;;;24.70;99.90;;;;;;4986871;28;20022;-76
2023/08/17 19:28:39;;;;;;;12.65;9.10;;;24.70;99.90;;;;;;4987199;28;20301;-76
2023/08/17 19:31:04;;;;;;;13.93;9.70;;;24.70;99.90;;;;;;4969057;28;20031;-75
2023/08/17 19:33:30;;;;;;;13.30;9.57;;;24.70;99.90;;;;;;4986907;28;20035;-75
2023/08/17 19:35:56;;;;;;;15.07;10.75;;;24.60;99.90;;;;;;4987032;28;20027;-73
2023/08/17 19:38:22;;;;;;;14.07;9.60;;;24.50;99.90;;;;;;4986543;28;20208;-73
2023/08/17 19:40:48;;;;;;;11.77;8.05;;;24.50;99.90;;;;;;4986859;28;20213;-75
2023/08/17 19:43:14;;;;;;;9.75;7.90;;;24.40;99.90;;;;;;4986486;28;20233;-75
2023/08/17 19:45:40;;;;;;;9.15;7.70;;;24.40;99.90;;;;;;4969804;28;20185;-74
2023/08/17 19:48:06;;;;;;;11.38;8.52;;;24.40;99.90;;;;;;4986500;28;20026;-75
2023/08/17 19:50:32;;;;;;;12.27;9.00;;;24.30;99.90;;;;;;4986649;28;20030;-76
2023/08/17 19:52:58;;;;;;;13.30;10.40;;;24.30;99.90;;;;;;4969608;28;20031;-74
2023/08/17 19:55:24;;;;;;;11.55;9.77;;;24.20;99.90;;;;;;4985878;28;20209;-75
2023/08/17 19:57:50;;;;;;;13.00;10.43;;;24.20;99.90;;;;;;4986532;28;20304;-75
2023/08/17 20:00:16;;;;;;;11.60;8.68;;;24.10;99.90;;;;;;4986180;28;20038;-76
2023/08/17 20:02:45;;;;;;;10.65;8.95;;;24.00;99.90;;;;;;4969568;28;20034;-74
2023/08/17 20:05:11;;;;;;;9.95;8.90;;;24.10;99.90;;;;;;4986187;28;20118;-73
2023/08/17 20:07:38;;;;;;;11.52;9.13;;;24.10;99.90;;;;;;4965734;28;20220;-75
2023/08/17 20:10:04;;;;;;;10.57;9.07;;;24.00;99.90;;;;;;4986108;28;20030;-74
2023/08/17 20:12:30;;;;;;;10.10;8.75;;;24.00;99.90;;;;;;4986336;28;20339;-74
2023/08/17 20:14:55;;;;;;;11.05;8.43;;;24.00;99.90;;;;;;4986796;28;20026;-75
2023/08/17 20:17:21;;;;;;;10.60;9.00;;;24.00;99.90;;;;;;4985808;28;20312;-74
2023/08/17 20:19:47;;;;;;;12.43;8.82;;;24.00;99.90;;;;;;4988440;28;20273;-74
2023/08/17 20:22:13;;;;;;;12.18;8.68;;;24.00;99.90;;;;;;4988209;28;20037;-75
2023/08/17 20:24:39;;;;;;;11.32;9.38;;;24.00;99.90;;;;;;4988261;28;20050;-75
2023/08/17 20:27:06;;;;;;;11.50;8.25;;;24.00;99.90;;;;;;5005200;28;20038;-75
2023/08/17 20:29:32;;;;;;;13.45;8.80;;;23.90;99.90;;;;;;5004838;28;20269;-75
2023/08/17 20:31:59;;;;;;;11.95;8.23;;;23.90;99.90;;;;;;5005349;28;20108;-74
2023/08/17 20:34:25;;;;;;;10.32;7.72;;;23.80;99.90;;;;;;5005058;28;20026;-76
2023/08/17 20:36:51;;;;;;;11.38;8.07;;;23.80;99.90;;;;;;5005107;28;20300;-75
2023/08/17 20:39:17;;;;;;;11.85;9.63;;;23.70;99.90;;;;;;5004623;28;20092;-74
2023/08/17 20:41:43;;;;;;;12.10;8.10;;;23.70;99.90;;;;;;5005331;28;20044;-74
2023/08/17 20:44:09;;;;;;;12.55;8.85;;;23.70;99.90;;;;;;5004548;28;20354;-74
2023/08/17 20:46:35;;;;;;;12.55;10.05;;;23.60;99.90;;;;;;5005505;28;20339;-74
2023/08/17 20:49:00;;;;;;;9.90;8.90;;;23.60;99.90;;;;;;5005182;28;20034;-74
2023/08/17 20:51:26;;;;;;;11.05;8.23;;;23.50;99.90;;;;;;5004806;28;20085;-73
2023/08/17 20:53:53;;;;;;;10.68;7.90;;;23.40;99.90;;;;;;5004788;28;20391;-77
2023/08/17 20:56:20;;;;;;;9.93;7.60;;;23.40;99.90;;;;;;5004388;28;20324;-74
2023/08/17 20:58:46;;;;;;;9.00;7.28;;;23.30;99.90;;;;;;5004708;28;20089;-75
2023/08/17 21:01:12;;;;;;;10.55;6.95;;;23.30;99.90;;;;;;4998457;28;20039;-75
2023/08/17 21:03:38;;;;;;;9.93;7.65;;;23.30;99.90;;;;;;4968175;28;20043;-75
2023/08/17 21:06:05;;;;;;;10.43;8.00;;;23.20;99.90;;;;;;4968073;28;20319;-74
2023/08/17 21:08:32;;;;;;;8.50;6.72;;;23.20;99.90;;;;;;4985045;28;20098;-72
2023/08/17 21:10:58;;;;;;;10.35;7.15;;;23.20;99.90;;;;;;4951891;28;20201;-74
2023/08/17 21:13:25;;;;;;;10.38;8.07;;;23.10;99.90;;;;;;4984722;28;20035;-73
2023/08/17 21:16:07;;;;;;;11.75;8.10;;;23.10;99.90;;;;;;4952333;28;20134;-74
2023/08/17 21:18:34;;;;;;;9.75;7.70;;;23.00;99.90;;;;;;4951719;28;20026;-75
2023/08/17 21:21:02;;;;;;;10.35;7.60;;;23.00;99.90;;;;;;4952066;28;20022;-73
2023/08/17 21:23:30;;;;;;;;;;;22.90;99.90;;;;;;4984945;28;20031;-75
2023/08/17 21:25:58;;;;;;;10.57;7.78;;;22.80;99.90;;;;;;4951822;28;19906;-73
2023/08/17 21:28:25;;;;;;;9.30;6.82;;;22.80;99.90;;;;;;4951447;28;20030;-74
2023/08/17 21:30:50;;;;;;;10.45;6.95;;;22.80;99.90;;;;;;4984815;28;20093;-74
2023/08/17 21:33:16;;;;;;;12.05;6.60;;;22.70;99.90;;;;;;4984297;28;20022;-74
2023/08/17 21:35:42;;;;;;;10.07;6.90;;;22.70;99.90;;;;;;4984817;28;20034;-74
2023/08/17 21:38:08;;;;;;;8.75;6.82;;;22.70;99.90;;;;;;4984469;28;20177;-74
2023/08/17 21:40:34;;;;;;;11.73;7.15;;;22.70;99.90;;;;;;4951138;28;20026;-73
2023/08/17 21:42:59;;;;;;;9.07;6.22;;;22.70;99.90;;;;;;4984144;28;20047;-74
2023/08/17 21:45:25;;;;;;;8.20;6.40;;;22.70;99.90;;;;;;4983934;28;20027;-73
2023/08/17 21:47:51;;;;;;;10.15;6.70;;;22.60;99.90;;;;;;4984659;28;20046;-72
2023/08/17 21:50:17;;;;;;;8.20;5.70;;;22.60;99.90;;;;;;4983912;28;20058;-72
2023/08/17 21:52:43;;;;;;;8.05;5.47;;;22.60;99.90;;;;;;4984486;28;20058;-72
2023/08/17 21:55:10;;;;;;;8.43;5.78;;;22.60;99.90;;;;;;4983774;28;20320;-73
2023/08/17 21:57:36;;;;;;;8.52;5.53;;;22.70;99.90;;;;;;4951302;28;20278;-73
2023/08/17 22:00:03;;;;;;;7.25;4.93;;;22.70;99.90;;;;;;4951209;28;20030;-74
2023/08/17 22:02:31;;;;;;;7.90;5.35;;;22.70;99.90;;;;;;4982857;28;20022;-73
2023/08/17 22:04:56;;;;;;;8.20;5.70;;;22.70;99.90;;;;;;4967408;28;20334;-73
2023/08/17 22:07:22;;;;;;;8.00;5.45;;;22.70;99.90;;;;;;4966870;28;20103;-73
2023/08/17 22:09:48;;;;;;;6.90;5.30;;;22.70;99.90;;;;;;4984093;28;20090;-74
2023/08/17 22:12:14;;;;;;;10.00;5.60;;;22.60;99.90;;;;;;4983522;28;20035;-73
2023/08/17 22:14:39;;;;;;;6.57;4.93;;;22.60;99.90;;;;;;4984367;28;20038;-73
2023/08/17 22:17:05;;;;;;;10.05;5.82;;;22.50;99.90;;;;;;4983936;28;20027;-73
2023/08/17 22:19:31;;;;;;;7.68;5.20;;;22.50;99.90;;;;;;4966537;28;20043;-74
2023/08/17 22:21:56;;;;;;;7.68;5.45;;;22.40;99.90;;;;;;4967070;28;20360;-73
2023/08/17 22:24:22;;;;;;;7.70;5.10;;;22.40;99.90;;;;;;4983496;28;20202;-75
2023/08/17 22:26:48;;;;;;;6.70;5.00;;;22.40;99.90;;;;;;4984596;28;20042;-73
2023/08/17 22:29:13;;;;;;;6.78;5.18;;;22.30;99.90;;;;;;4983871;28;20096;-74
2023/08/17 22:31:42;;;;;;;7.47;5.10;;;22.30;99.90;;;;;;4983756;28;20034;-75
2023/08/17 22:34:09;;;;;;;6.90;4.72;;;22.20;99.90;;;;;;4983921;28;20051;-74
2023/08/17 22:36:37;;;;;;;;;;;22.20;99.90;;;;;;4951059;28;20035;-74
2023/08/17 22:39:03;;;;;;;6.97;4.85;;;22.20;99.90;;;;;;4966826;28;19902;-72
2023/08/17 22:41:29;;;;;;;7.07;5.63;;;22.20;99.90;;;;;;4983163;28;20359;-72
2023/08/17 22:43:54;;;;;;;7.93;5.03;;;22.10;99.90;;;;;;4966396;28;20035;-73
2023/08/17 22:46:20;;;;;;;8.80;4.93;;;22.00;99.90;;;;;;4983367;28;20261;-74
2023/08/17 22:48:46;;;;;;;6.05;3.47;;;22.00;99.90;;;;;;4983874;28;20035;-73
2023/08/17 22:51:16;;;;;;;6.43;4.15;;;22.00;99.90;;;;;;4983651;28;20316;-75
2023/08/17 22:53:41;;;;;;;8.02;4.40;;;21.90;99.80;;;;;;4986414;28;20046;-74
2023/08/17 22:56:07;;;;;;;6.45;4.65;;;21.90;99.90;;;;;;4970595;28;20054;-74
2023/08/17 22:58:33;;;;;;;9.88;3.95;;;21.90;99.60;;;;;;4987098;28;20047;-74
2023/08/17 23:00:59;;;;;;;6.38;3.30;;;21.90;98.80;;;;;;4987293;28;20037;-73
2023/08/17 23:03:28;;;;;;;7.90;3.55;;;21.80;98.40;;;;;;4987248;28;20045;-71
2023/08/17 23:05:53;;;;;;;6.70;3.47;;;21.90;98.30;;;;;;4970265;28;20037;-73
2023/08/17 23:08:19;;;;;;;5.30;3.47;;;21.90;98.50;;;;;;4986634;28;20058;-73
2023/08/17 23:10:46;;;;;;;5.05;3.50;;;21.90;98.60;;;;;;4987566;28;20033;-73
2023/08/17 23:13:11;;;;;;;6.57;4.35;;;21.80;98.90;;;;;;4987364;28;20022;-72
2023/08/17 23:15:37;;;;;;;6.22;3.50;;;21.70;99.20;;;;;;4969571;28;20026;-72
2023/08/17 23:18:03;;;;;;;5.35;3.78;;;21.70;99.00;;;;;;4987074;28;20035;-74
2023/08/17 23:20:29;;;;;;;5.78;3.70;;;21.70;99.10;;;;;;4970007;28;20077;-73
2023/08/17 23:22:54;;;;;;;6.72;3.75;;;21.70;98.80;;;;;;4987093;28;20074;-74
2023/08/17 23:25:21;;;;;;;6.03;3.42;;;21.70;99.10;;;;;;4986493;28;20038;-72
2023/08/17 23:27:47;;;;;;;5.63;3.10;;;21.70;98.80;;;;;;4954102;28;20030;-73
2023/08/17 23:30:13;;;;;;;5.40;3.00;;;21.70;99.10;;;;;;4986840;28;20039;-73
2023/08/17 23:32:38;;;;;;;4.50;3.10;;;21.70;98.10;;;;;;4953436;28;20030;-72
2023/08/17 23:35:05;;;;;;;5.90;2.90;;;21.70;97.70;;;;;;4954007;28;20041;-73
2023/08/17 23:37:30;;;;;;;6.32;3.30;;;21.80;97.40;;;;;;4986475;28;20038;-73
2023/08/17 23:39:57;;;;;;;5.72;3.22;;;21.80;97.30;;;;;;4986752;28;20320;-71
2023/08/17 23:42:23;;;;;;;6.82;3.17;;;21.70;97.30;;;;;;4986464;28;20042;-73
2023/08/17 23:44:49;;;;;;;6.32;3.40;;;21.70;97.30;;;;;;4986709;28;20031;-72
2023/08/17 23:47:14;;;;;;;10.23;4.18;;;21.70;97.40;;;;;;4986703;28;20069;-73
2023/08/17 23:49:40;;;;;;;11.38;4.75;;;21.60;97.40;;;;;;4986717;28;20375;-73
2023/08/17 23:52:06;;;;;;;9.32;3.70;;;21.60;97.60;;;;;;4969559;28;20151;-73
2023/08/17 23:54:32;;;;;;;8.75;3.97;;;21.50;97.70;;;;;;4985790;28;20050;-73
2023/08/17 23:56:58;;;;;;;5.82;3.10;;;21.50;97.80;;;;;;4969403;28;20053;-71
2023/08/17 23:59:24;;;;;;;7.30;3.47;;;21.40;98.20;;;;;;4969133;28;20031;-73
